createdAt,value
2022-12-23T00:00:17.739Z,6.20
2022-12-23T00:01:39.956Z,6.20
2022-12-23T00:03:02.363Z,6.10
2022-12-23T00:04:24.589Z,6.10
2022-12-23T00:05:46.666Z,6.10
2022-12-23T00:07:08.782Z,6.00
2022-12-23T00:08:30.848Z,6.00
2022-12-23T00:09:52.881Z,6.00
2022-12-23T00:11:18.591Z,6.00
2022-12-23T00:12:59.149Z,6.00
2022-12-23T00:14:40.032Z,6.00
2022-12-23T00:16:13.850Z,6.00
2022-12-23T00:17:41.746Z,5.90
2022-12-23T00:19:04.267Z,5.90
2022-12-23T00:20:26.323Z,5.90
2022-12-23T00:21:48.621Z,5.90
2022-12-23T00:23:10.742Z,5.90
2022-12-23T00:24:32.822Z,5.90
2022-12-23T00:25:55.032Z,5.90
2022-12-23T00:27:17.203Z,5.90
2022-12-23T00:28:39.264Z,5.90
2022-12-23T00:30:01.294Z,5.90
2022-12-23T00:31:23.500Z,5.90
2022-12-23T00:32:45.544Z,5.90
2022-12-23T00:34:07.618Z,5.90
2022-12-23T00:35:31.809Z,6.00
2022-12-23T00:36:54.494Z,6.00
2022-12-23T00:38:38.039Z,6.00
2022-12-23T00:40:18.617Z,6.00
2022-12-23T00:41:59.404Z,6.00
2022-12-23T00:43:21.502Z,6.00
2022-12-23T00:44:43.702Z,6.00
2022-12-23T00:46:05.929Z,6.00
2022-12-23T00:47:46.866Z,6.10
2022-12-23T00:49:29.832Z,6.10
2022-12-23T00:50:53.091Z,6.00
2022-12-23T00:52:18.151Z,6.00
2022-12-23T00:53:40.196Z,6.00
2022-12-23T00:55:02.276Z,6.00
2022-12-23T00:56:24.370Z,6.00
2022-12-23T00:57:46.525Z,6.00
2022-12-23T00:59:08.586Z,6.00
2022-12-23T01:00:49.212Z,6.00
2022-12-23T01:02:30.837Z,6.00
2022-12-23T01:04:11.716Z,6.00
2022-12-23T01:05:36.812Z,6.00
2022-12-23T01:06:58.909Z,6.00
2022-12-23T01:08:20.959Z,6.00
2022-12-23T01:09:43.085Z,6.00
2022-12-23T01:11:07.786Z,6.00
2022-12-23T01:12:29.829Z,6.10
2022-12-23T01:13:51.893Z,6.10
2022-12-23T01:15:13.940Z,6.10
2022-12-23T01:16:40.390Z,6.10
2022-12-23T01:18:02.513Z,6.10
2022-12-23T01:19:24.601Z,6.20
2022-12-23T01:20:46.698Z,6.20
2022-12-23T01:22:08.857Z,6.20
2022-12-23T01:23:31.229Z,6.20
2022-12-23T01:24:53.285Z,6.20
2022-12-23T01:26:15.367Z,6.20
2022-12-23T01:27:37.775Z,6.20
2022-12-23T01:29:00.017Z,6.20
2022-12-23T01:30:22.088Z,6.20
2022-12-23T01:31:44.295Z,6.20
2022-12-23T01:33:06.437Z,6.20
2022-12-23T01:34:34.355Z,6.20
2022-12-23T01:36:03.223Z,6.20
2022-12-23T01:37:25.308Z,6.20
2022-12-23T01:38:48.184Z,6.20
2022-12-23T01:40:10.638Z,6.20
2022-12-23T01:41:52.639Z,6.20
2022-12-23T01:43:19.877Z,6.20
2022-12-23T01:44:57.429Z,6.20
2022-12-23T01:46:19.651Z,6.20
2022-12-23T01:48:02.548Z,6.20
2022-12-23T01:49:24.761Z,6.20
2022-12-23T01:51:02.807Z,6.20
2022-12-23T01:52:25.317Z,6.10
2022-12-23T01:53:55.047Z,6.10
2022-12-23T01:55:20.743Z,6.10
2022-12-23T01:56:43.047Z,6.10
2022-12-23T01:58:28.752Z,6.20
2022-12-23T02:00:09.934Z,6.10
2022-12-23T02:01:50.764Z,6.10
2022-12-23T02:03:31.736Z,6.20
2022-12-23T02:04:54.699Z,6.20
2022-12-23T02:06:57.840Z,6.20
2022-12-23T02:08:38.518Z,6.20
2022-12-23T02:10:00.832Z,6.20
2022-12-23T02:11:42.158Z,6.20
2022-12-23T02:13:16.536Z,6.20
2022-12-23T02:15:15.438Z,6.20
2022-12-23T02:16:47.769Z,6.20
2022-12-23T02:18:39.283Z,6.20
2022-12-23T02:20:26.857Z,6.20
2022-12-23T02:22:23.862Z,6.20
2022-12-23T02:23:58.160Z,6.20
2022-12-23T02:25:30.450Z,6.20
2022-12-23T02:27:30.850Z,6.30
2022-12-23T02:29:33.980Z,6.20
2022-12-23T02:31:12.591Z,6.20
2022-12-23T02:33:06.097Z,6.30
2022-12-23T02:34:50.292Z,6.30
2022-12-23T02:36:22.230Z,6.30
2022-12-23T02:38:09.219Z,6.30
2022-12-23T02:39:59.358Z,6.30
2022-12-23T02:41:45.650Z,6.30
2022-12-23T02:43:16.133Z,6.30
2022-12-23T02:45:01.827Z,6.30
2022-12-23T02:46:54.379Z,6.30
2022-12-23T02:48:34.136Z,6.30
2022-12-23T02:50:00.837Z,6.30
2022-12-23T02:51:28.018Z,6.30
2022-12-23T02:52:52.151Z,6.30
2022-12-23T02:54:19.781Z,6.30
2022-12-23T02:55:44.893Z,6.30
2022-12-23T02:57:07.736Z,6.30
2022-12-23T02:58:37.292Z,6.30
2022-12-23T03:00:01.462Z,6.30
2022-12-23T03:01:26.211Z,6.30
2022-12-23T03:02:49.119Z,6.30
2022-12-23T03:04:11.476Z,6.30
2022-12-23T03:05:43.682Z,6.30
2022-12-23T03:07:08.082Z,6.30
2022-12-23T03:08:43.456Z,6.30
2022-12-23T03:10:17.614Z,6.30
2022-12-23T03:11:50.942Z,6.30
2022-12-23T03:13:42.942Z,6.30
2022-12-23T03:15:17.098Z,6.30
2022-12-23T03:17:01.736Z,6.30
2022-12-23T03:18:46.834Z,6.30
2022-12-23T03:20:30.492Z,6.30
2022-12-23T03:22:18.005Z,6.30
2022-12-23T03:23:55.033Z,6.30
2022-12-23T03:25:26.230Z,6.40
2022-12-23T03:27:02.512Z,6.40
2022-12-23T03:28:35.709Z,6.40
2022-12-23T03:30:09.265Z,6.30
2022-12-23T03:31:33.117Z,6.40
2022-12-23T03:33:09.861Z,6.40
2022-12-23T03:34:37.420Z,6.40
2022-12-23T03:36:12.509Z,6.30
2022-12-23T03:37:37.874Z,6.30
2022-12-23T03:39:03.521Z,6.30
2022-12-23T03:40:31.088Z,6.30
2022-12-23T03:41:58.288Z,6.30
2022-12-23T03:43:30.454Z,6.30
2022-12-23T03:45:19.648Z,6.30
2022-12-23T03:47:14.760Z,6.30
2022-12-23T03:48:43.402Z,6.30
2022-12-23T03:50:10.964Z,6.30
2022-12-23T03:52:18.876Z,6.20
2022-12-23T03:53:51.425Z,6.20
2022-12-23T03:55:20.299Z,6.20
2022-12-23T03:56:48.363Z,6.20
2022-12-23T03:58:20.048Z,6.20
2022-12-23T03:59:45.415Z,6.20
2022-12-23T04:01:18.089Z,6.20
2022-12-23T04:02:46.938Z,6.30
2022-12-23T04:04:26.359Z,6.20
2022-12-23T04:05:54.014Z,6.20
2022-12-23T04:07:23.788Z,6.20
2022-12-23T04:08:47.536Z,6.20
2022-12-23T04:10:10.887Z,6.20
2022-12-23T04:11:35.275Z,6.20
2022-12-23T04:12:57.386Z,6.20
2022-12-23T04:14:21.161Z,6.20
2022-12-23T04:15:43.494Z,6.20
2022-12-23T04:17:05.659Z,6.20
2022-12-23T04:18:28.414Z,6.30
2022-12-23T04:19:52.213Z,6.30
2022-12-23T04:21:14.840Z,6.30
2022-12-23T04:22:36.963Z,6.30
2022-12-23T04:23:59.017Z,6.20
2022-12-23T04:25:21.414Z,6.30
2022-12-23T04:26:43.450Z,6.30
2022-12-23T04:28:05.753Z,6.30
2022-12-23T04:29:27.846Z,6.30
2022-12-23T04:30:49.898Z,6.30
2022-12-23T04:32:11.968Z,6.30
2022-12-23T04:33:34.069Z,6.30
2022-12-23T04:34:56.161Z,6.30
2022-12-23T04:36:18.220Z,6.30
2022-12-23T04:37:40.407Z,6.30
2022-12-23T04:39:02.482Z,6.30
2022-12-23T04:40:24.658Z,6.30
2022-12-23T04:41:46.738Z,6.30
2022-12-23T04:43:08.769Z,6.30
2022-12-23T04:44:31.739Z,6.30
2022-12-23T04:45:53.853Z,6.30
2022-12-23T04:47:15.924Z,6.30
2022-12-23T04:48:37.987Z,6.30
2022-12-23T04:50:00.037Z,6.30
2022-12-23T04:51:22.121Z,6.20
2022-12-23T04:52:44.472Z,6.20
2022-12-23T04:54:06.545Z,6.20
2022-12-23T04:55:28.578Z,6.20
2022-12-23T04:56:50.685Z,6.20
2022-12-23T04:58:12.706Z,6.10
2022-12-23T04:59:34.917Z,6.10
2022-12-23T05:01:08.730Z,6.10
2022-12-23T05:02:31.032Z,6.10
2022-12-23T05:03:53.156Z,6.10
2022-12-23T05:05:15.248Z,6.10
2022-12-23T05:06:37.927Z,6.10
2022-12-23T05:08:04.890Z,6.10
2022-12-23T05:09:27.045Z,6.10
2022-12-23T05:10:49.107Z,6.10
2022-12-23T05:12:11.184Z,6.00
2022-12-23T05:13:33.256Z,6.10
2022-12-23T05:14:55.406Z,6.10
2022-12-23T05:16:17.525Z,6.00
2022-12-23T05:17:39.599Z,6.10
2022-12-23T05:19:01.614Z,6.10
2022-12-23T05:20:23.661Z,6.00
2022-12-23T05:21:45.762Z,6.00
2022-12-23T05:23:07.900Z,6.00
2022-12-23T05:24:29.987Z,6.00
2022-12-23T05:25:53.713Z,6.10
2022-12-23T05:27:15.815Z,6.10
2022-12-23T05:28:37.980Z,6.10
2022-12-23T05:30:00.165Z,6.10
2022-12-23T05:31:22.266Z,6.10
2022-12-23T05:32:44.409Z,6.10
2022-12-23T05:34:07.041Z,6.20
2022-12-23T05:35:29.193Z,6.20
2022-12-23T05:36:51.300Z,6.20
2022-12-23T05:38:13.329Z,6.20
2022-12-23T05:39:35.445Z,6.20
2022-12-23T05:40:57.931Z,6.20
2022-12-23T05:42:19.998Z,6.30
2022-12-23T05:43:42.042Z,6.30
2022-12-23T05:45:04.611Z,6.30
2022-12-23T05:46:27.376Z,6.30
2022-12-23T05:47:49.596Z,6.30
2022-12-23T05:49:11.650Z,6.30
2022-12-23T05:50:33.919Z,6.30
2022-12-23T05:51:55.950Z,6.30
2022-12-23T05:53:19.272Z,6.30
2022-12-23T05:54:41.328Z,6.30
2022-12-23T05:56:05.356Z,6.30
2022-12-23T05:57:27.394Z,6.30
2022-12-23T05:58:49.454Z,6.30
2022-12-23T06:00:11.999Z,6.30
2022-12-23T06:01:34.221Z,6.20
2022-12-23T06:02:56.518Z,6.20
2022-12-23T06:05:26.885Z,6.20
2022-12-23T06:06:48.945Z,6.20
2022-12-23T06:08:11.131Z,6.30
2022-12-23T06:09:33.184Z,6.30
2022-12-23T06:10:55.313Z,6.30
2022-12-23T06:12:17.421Z,6.30
2022-12-23T06:13:39.479Z,6.30
2022-12-23T06:15:01.580Z,6.30
2022-12-23T06:16:23.790Z,6.30
2022-12-23T06:17:45.911Z,6.30
2022-12-23T06:19:08.466Z,6.30
2022-12-23T06:20:30.588Z,6.30
2022-12-23T06:21:52.620Z,6.30
2022-12-23T06:23:14.776Z,6.30
2022-12-23T06:24:36.884Z,6.30
2022-12-23T06:26:00.421Z,6.30
2022-12-23T06:27:22.660Z,6.30
2022-12-23T06:28:44.731Z,6.30
2022-12-23T06:30:07.862Z,6.30
2022-12-23T06:31:30.139Z,6.40
2022-12-23T06:32:52.285Z,6.40
2022-12-23T06:34:14.507Z,6.30
2022-12-23T06:35:36.552Z,6.30
2022-12-23T06:36:59.377Z,6.30
2022-12-23T06:38:21.404Z,6.30
2022-12-23T06:39:43.513Z,6.30
2022-12-23T06:41:05.656Z,6.30
2022-12-23T06:42:27.756Z,6.30
2022-12-23T06:43:54.141Z,6.30
2022-12-23T06:45:16.732Z,6.30
2022-12-23T06:46:38.849Z,6.30
2022-12-23T06:48:00.842Z,6.30
2022-12-23T06:49:22.894Z,6.30
2022-12-23T06:50:45.739Z,6.30
2022-12-23T06:52:07.781Z,6.30
2022-12-23T06:53:29.826Z,6.30
2022-12-23T06:54:51.941Z,6.30
2022-12-23T06:56:14.013Z,6.30
2022-12-23T06:57:36.161Z,6.30
2022-12-23T06:58:58.270Z,6.30
2022-12-23T07:00:20.595Z,6.30
2022-12-23T07:01:43.076Z,6.30
2022-12-23T07:03:05.448Z,6.30
2022-12-23T07:04:27.624Z,6.30
2022-12-23T07:05:51.215Z,6.30
2022-12-23T07:07:13.244Z,6.20
2022-12-23T07:08:35.328Z,6.20
2022-12-23T07:09:57.391Z,6.10
2022-12-23T07:11:19.494Z,6.10
2022-12-23T07:12:44.828Z,6.00
2022-12-23T07:14:11.666Z,6.00
2022-12-23T07:15:33.799Z,5.90
2022-12-23T07:16:55.883Z,5.90
2022-12-23T07:18:17.961Z,5.90
2022-12-23T07:19:41.718Z,5.90
2022-12-23T07:21:04.452Z,5.90
2022-12-23T07:22:26.760Z,5.90
2022-12-23T07:23:48.914Z,5.90
2022-12-23T07:25:11.089Z,5.90
2022-12-23T07:26:33.155Z,5.90
2022-12-23T07:27:55.272Z,5.90
2022-12-23T07:29:17.303Z,5.90
2022-12-23T07:30:39.421Z,5.90
2022-12-23T07:32:02.572Z,6.00
2022-12-23T07:33:24.666Z,6.00
2022-12-23T07:34:46.699Z,6.00
2022-12-23T07:36:09.132Z,6.00
2022-12-23T07:37:31.203Z,5.90
2022-12-23T07:38:53.223Z,5.90
2022-12-23T07:40:15.420Z,5.90
2022-12-23T07:41:37.488Z,5.90
2022-12-23T07:43:00.037Z,5.90
2022-12-23T07:44:22.093Z,5.90
2022-12-23T07:45:44.173Z,5.80
2022-12-23T07:47:06.205Z,5.80
2022-12-23T07:48:28.311Z,5.80
2022-12-23T07:49:50.397Z,5.80
2022-12-23T07:51:12.572Z,5.70
2022-12-23T07:52:34.701Z,5.70
2022-12-23T07:53:57.323Z,5.70
2022-12-23T07:55:20.688Z,5.70
2022-12-23T07:56:42.741Z,5.70
2022-12-23T07:58:04.744Z,5.70
2022-12-23T07:59:27.392Z,5.70
2022-12-23T08:00:49.471Z,5.70
2022-12-23T08:02:11.754Z,5.70
2022-12-23T08:03:34.892Z,5.70
2022-12-23T08:04:57.193Z,5.70
2022-12-23T08:06:19.329Z,5.70
2022-12-23T08:07:42.094Z,5.70
2022-12-23T08:09:04.353Z,5.70
2022-12-23T08:10:26.495Z,5.70
2022-12-23T08:11:48.563Z,5.70
2022-12-23T08:13:10.592Z,5.70
2022-12-23T08:14:32.711Z,5.80
2022-12-23T08:15:59.471Z,5.80
2022-12-23T08:17:22.045Z,5.80
2022-12-23T08:18:44.381Z,5.90
2022-12-23T08:20:07.043Z,5.90
2022-12-23T08:21:29.080Z,6.00
2022-12-23T08:22:51.131Z,6.00
2022-12-23T08:24:13.337Z,6.10
2022-12-23T08:25:35.396Z,6.10
2022-12-23T08:26:58.190Z,6.10
2022-12-23T08:28:20.243Z,6.10
2022-12-23T08:29:42.384Z,6.10
2022-12-23T08:31:11.512Z,6.20
2022-12-23T08:32:33.638Z,6.20
2022-12-23T08:33:56.777Z,6.20
2022-12-23T08:35:18.790Z,6.20
2022-12-23T08:36:40.853Z,6.30
2022-12-23T08:38:02.908Z,6.30
2022-12-23T08:39:25.159Z,6.30
2022-12-23T08:40:47.208Z,6.30
2022-12-23T08:42:10.190Z,6.30
2022-12-23T08:43:36.016Z,6.30
2022-12-23T08:44:58.743Z,6.30
2022-12-23T08:46:21.135Z,6.40
2022-12-23T08:47:43.162Z,6.40
2022-12-23T08:49:06.277Z,6.40
2022-12-23T08:50:28.339Z,6.40
2022-12-23T08:51:50.441Z,6.50
2022-12-23T08:53:13.289Z,6.50
2022-12-23T08:54:35.362Z,6.60
2022-12-23T08:56:03.799Z,6.60
2022-12-23T08:57:25.894Z,6.60
2022-12-23T08:58:50.238Z,6.70
2022-12-23T09:00:12.653Z,6.60
2022-12-23T09:01:35.202Z,6.60
2022-12-23T09:02:57.476Z,6.70
2022-12-23T09:04:19.626Z,6.70
2022-12-23T09:05:42.282Z,6.70
2022-12-23T09:07:04.353Z,6.70
2022-12-23T09:08:26.373Z,6.70
2022-12-23T09:09:48.461Z,6.70
2022-12-23T09:11:12.596Z,6.70
2022-12-23T09:12:34.608Z,6.70
2022-12-23T09:13:59.382Z,6.70
2022-12-23T09:15:21.511Z,6.70
2022-12-23T09:16:43.629Z,6.70
2022-12-23T09:18:06.050Z,6.70
2022-12-23T09:19:28.142Z,6.80
2022-12-23T09:20:50.167Z,6.80
2022-12-23T09:22:12.293Z,6.80
2022-12-23T09:23:34.940Z,6.70
2022-12-23T09:25:03.140Z,6.80
2022-12-23T09:26:29.612Z,6.80
2022-12-23T09:27:51.724Z,6.80
2022-12-23T09:29:13.757Z,6.80
2022-12-23T09:30:35.770Z,6.90
2022-12-23T09:31:57.872Z,6.90
2022-12-23T09:33:19.950Z,6.90
2022-12-23T09:34:42.046Z,6.90
2022-12-23T09:36:05.011Z,6.90
2022-12-23T09:37:27.076Z,6.90
2022-12-23T09:38:55.474Z,6.90
2022-12-23T09:40:21.000Z,6.90
2022-12-23T09:41:47.431Z,6.90
2022-12-23T09:43:28.238Z,6.90
2022-12-23T09:45:00.639Z,7.00
2022-12-23T09:46:25.535Z,7.00
2022-12-23T09:47:48.970Z,7.00
2022-12-23T09:49:20.202Z,7.00
2022-12-23T09:50:43.045Z,7.00
2022-12-23T09:52:11.849Z,7.00
2022-12-23T09:54:20.861Z,7.00
2022-12-23T09:56:08.019Z,7.00
2022-12-23T09:57:42.127Z,7.00
2022-12-23T09:59:29.779Z,6.90
2022-12-23T10:01:29.555Z,6.90
2022-12-23T10:03:10.495Z,6.90
2022-12-23T10:04:51.598Z,6.90
2022-12-23T10:06:22.590Z,7.00
2022-12-23T10:07:51.405Z,7.00
2022-12-23T10:09:15.349Z,7.00
2022-12-23T10:10:50.792Z,7.00
2022-12-23T10:12:41.731Z,7.00
2022-12-23T10:14:18.175Z,7.00
2022-12-23T10:15:47.686Z,7.00
2022-12-23T10:17:17.522Z,7.00
2022-12-23T10:18:48.308Z,6.90
2022-12-23T10:20:19.452Z,6.90
2022-12-23T10:21:48.746Z,6.90
2022-12-23T10:23:22.037Z,6.90
2022-12-23T10:24:47.235Z,6.80
2022-12-23T10:26:24.065Z,6.80
2022-12-23T10:27:46.225Z,6.80
2022-12-23T10:29:19.461Z,6.80
2022-12-23T10:32:46.164Z,6.80
2022-12-23T10:34:19.709Z,6.80
2022-12-23T10:36:09.801Z,6.80
2022-12-23T10:37:41.946Z,6.80
2022-12-23T10:39:42.609Z,6.80
2022-12-23T10:41:15.529Z,6.80
2022-12-23T10:42:58.750Z,6.80
2022-12-23T10:44:32.931Z,6.80
2022-12-23T10:46:22.088Z,6.90
2022-12-23T10:48:14.759Z,6.90
2022-12-23T10:49:51.620Z,6.90
2022-12-23T10:51:37.304Z,7.00
2022-12-23T10:53:04.468Z,7.00
2022-12-23T10:54:33.956Z,7.00
2022-12-23T10:55:57.162Z,7.00
2022-12-23T10:57:20.794Z,7.00
2022-12-23T10:58:46.658Z,7.00
2022-12-23T11:00:22.155Z,7.00
2022-12-23T11:01:47.718Z,6.90
2022-12-23T11:03:18.887Z,6.90
2022-12-23T11:04:44.448Z,6.90
2022-12-23T11:06:08.958Z,6.90
2022-12-23T11:07:46.923Z,6.90
2022-12-23T11:09:17.511Z,6.90
2022-12-23T11:10:40.249Z,6.90
2022-12-23T11:12:05.110Z,6.90
2022-12-23T11:13:35.428Z,7.00
2022-12-23T11:14:58.234Z,7.00
2022-12-23T11:16:26.270Z,7.00
2022-12-23T11:18:17.065Z,7.00
2022-12-23T11:19:39.093Z,7.10
2022-12-23T11:21:06.392Z,7.10
2022-12-23T11:22:28.413Z,7.10
2022-12-23T11:24:18.042Z,7.10
2022-12-23T11:25:44.531Z,7.20
2022-12-23T11:27:12.935Z,7.20
2022-12-23T11:28:39.416Z,7.30
2022-12-23T11:30:01.563Z,7.30
2022-12-23T11:31:30.609Z,7.30
2022-12-23T11:32:52.962Z,7.40
2022-12-23T11:34:21.089Z,7.30
2022-12-23T11:35:44.391Z,7.40
2022-12-23T11:37:07.743Z,7.40
2022-12-23T11:38:30.603Z,7.50
2022-12-23T11:39:52.882Z,7.50
2022-12-23T11:41:23.360Z,7.60
2022-12-23T11:42:47.937Z,7.60
2022-12-23T11:44:32.447Z,7.70
2022-12-23T11:46:18.248Z,7.70
2022-12-23T11:47:41.594Z,7.80
2022-12-23T11:49:16.536Z,7.70
2022-12-23T11:50:40.515Z,7.60
2022-12-23T11:52:05.406Z,7.60
2022-12-23T11:53:28.034Z,7.40
2022-12-23T11:55:01.275Z,7.30
2022-12-23T11:56:23.421Z,7.20
2022-12-23T11:57:48.997Z,7.10
2022-12-23T11:59:37.036Z,7.10
2022-12-23T12:01:06.704Z,7.10
2022-12-23T12:02:43.194Z,7.10
2022-12-23T12:04:09.038Z,7.20
2022-12-23T12:05:38.299Z,7.20
2022-12-23T12:07:01.835Z,7.20
2022-12-23T12:08:30.756Z,7.20
2022-12-23T12:09:56.508Z,7.20
2022-12-23T12:11:23.212Z,7.20
2022-12-23T12:12:51.303Z,7.10
2022-12-23T12:14:32.899Z,7.20
2022-12-23T12:16:01.355Z,7.20
2022-12-23T12:17:36.041Z,7.30
2022-12-23T12:19:04.114Z,7.40
2022-12-23T12:20:35.674Z,7.40
2022-12-23T12:22:06.779Z,7.50
2022-12-23T12:23:40.628Z,7.50
2022-12-23T12:25:25.860Z,7.50
2022-12-23T12:26:51.589Z,7.50
2022-12-23T12:28:22.931Z,7.50
2022-12-23T12:29:51.253Z,7.50
2022-12-23T12:31:26.694Z,7.50
2022-12-23T12:33:07.200Z,7.50
2022-12-23T12:35:00.167Z,7.50
2022-12-23T12:36:49.531Z,7.40
2022-12-23T12:38:28.087Z,7.40
2022-12-23T12:40:19.213Z,7.40
2022-12-23T12:41:57.301Z,7.40
2022-12-23T12:43:31.289Z,7.30
2022-12-23T12:44:59.521Z,7.30
2022-12-23T12:46:36.825Z,7.40
2022-12-23T12:48:29.730Z,7.40
2022-12-23T12:49:59.578Z,7.40
2022-12-23T12:51:21.589Z,7.30
2022-12-23T12:52:44.543Z,7.30
2022-12-23T12:54:35.128Z,7.30
2022-12-23T12:56:06.039Z,7.30
2022-12-23T12:57:29.812Z,7.30
2022-12-23T12:58:51.951Z,7.30
2022-12-23T13:00:19.686Z,7.30
2022-12-23T13:02:07.313Z,7.30
2022-12-23T13:04:00.272Z,7.40
2022-12-23T13:05:59.915Z,7.40
2022-12-23T13:07:52.187Z,7.40
2022-12-23T13:09:14.501Z,7.40
2022-12-23T13:11:01.264Z,7.40
2022-12-23T13:13:06.838Z,7.30
2022-12-23T13:14:54.278Z,7.30
2022-12-23T13:16:25.345Z,7.30
2022-12-23T13:18:15.456Z,7.30
2022-12-23T13:20:00.534Z,7.30
2022-12-23T13:21:48.130Z,7.20
2022-12-23T13:23:42.902Z,7.20
2022-12-23T13:25:09.380Z,7.20
2022-12-23T13:26:56.445Z,7.10
2022-12-23T13:28:40.561Z,7.10
2022-12-23T13:30:08.596Z,7.10
2022-12-23T13:31:30.881Z,7.10
2022-12-23T13:33:11.496Z,7.00
2022-12-23T13:34:54.908Z,7.00
2022-12-23T13:36:38.659Z,6.90
2022-12-23T13:38:09.713Z,6.90
2022-12-23T13:39:49.385Z,7.00
2022-12-23T13:41:33.649Z,6.90
2022-12-23T13:43:02.721Z,6.90
2022-12-23T13:44:25.680Z,6.90
2022-12-23T13:45:50.065Z,6.90
2022-12-23T13:48:04.841Z,6.90
2022-12-23T13:49:50.604Z,6.90
2022-12-23T13:51:44.446Z,6.90
2022-12-23T13:53:06.505Z,6.90
2022-12-23T13:54:47.134Z,6.90
2022-12-23T13:56:36.151Z,6.90
2022-12-23T13:58:11.364Z,6.90
2022-12-23T13:59:42.697Z,6.90
2022-12-23T14:01:10.719Z,6.90
2022-12-23T14:02:36.109Z,6.90
2022-12-23T14:04:32.615Z,6.90
2022-12-23T14:05:54.844Z,6.90
2022-12-23T14:07:21.998Z,6.90
2022-12-23T14:08:44.258Z,6.90
2022-12-23T14:10:19.942Z,6.80
2022-12-23T14:11:45.021Z,6.80
2022-12-23T14:13:08.983Z,6.80
2022-12-23T14:14:31.560Z,6.80
2022-12-23T14:15:59.578Z,6.80
2022-12-23T14:18:04.858Z,6.80
2022-12-23T14:19:51.423Z,6.70
2022-12-23T14:21:34.220Z,6.70
2022-12-23T14:23:31.205Z,6.70
2022-12-23T14:25:30.826Z,6.80
2022-12-23T14:27:18.065Z,6.80
2022-12-23T14:29:08.056Z,6.70
2022-12-23T14:30:45.860Z,6.70
2022-12-23T14:32:26.037Z,6.70
2022-12-23T14:33:49.087Z,6.70
2022-12-23T14:35:16.941Z,6.60
2022-12-23T14:36:39.095Z,6.60
2022-12-23T14:38:16.074Z,6.60
2022-12-23T14:39:38.231Z,6.60
2022-12-23T14:41:43.359Z,6.50
2022-12-23T14:43:25.237Z,6.50
2022-12-23T14:44:50.214Z,6.50
2022-12-23T14:46:36.541Z,6.50
2022-12-23T14:47:59.245Z,6.50
2022-12-23T14:49:40.869Z,6.40
2022-12-23T14:51:21.179Z,6.40
2022-12-23T14:52:46.632Z,6.40
2022-12-23T14:54:14.027Z,6.40
2022-12-23T14:55:39.283Z,6.40
2022-12-23T14:57:13.636Z,6.40
2022-12-23T14:58:56.098Z,6.30
2022-12-23T15:00:18.599Z,6.30
2022-12-23T15:01:52.814Z,6.30
2022-12-23T15:03:19.459Z,6.30
2022-12-23T15:04:53.752Z,6.20
2022-12-23T15:06:19.298Z,6.10
2022-12-23T15:07:43.855Z,6.10
2022-12-23T15:09:07.551Z,6.00
2022-12-23T15:10:30.187Z,6.00
2022-12-23T15:11:54.814Z,5.90
2022-12-23T15:13:19.280Z,5.90
2022-12-23T15:14:49.001Z,5.80
2022-12-23T15:16:17.320Z,5.80
2022-12-23T15:17:39.792Z,5.80
2022-12-23T15:19:23.341Z,5.80
2022-12-23T15:20:57.248Z,5.80
2022-12-23T15:22:25.187Z,5.80
2022-12-23T15:23:52.387Z,5.80
2022-12-23T15:25:33.522Z,5.70
2022-12-23T15:27:25.342Z,5.70
2022-12-23T15:28:42.051Z,5.60
2022-12-23T15:30:04.622Z,5.60
2022-12-23T15:31:39.241Z,5.50
2022-12-23T15:33:27.798Z,5.50
2022-12-23T15:34:52.008Z,5.40
2022-12-23T15:36:22.015Z,5.30
2022-12-23T15:37:47.664Z,5.30
2022-12-23T15:39:27.815Z,5.20
2022-12-23T15:41:00.360Z,5.20
2022-12-23T15:42:29.360Z,5.10
2022-12-23T15:43:51.773Z,5.00
2022-12-23T15:45:30.942Z,5.00
2022-12-23T15:46:53.366Z,4.90
2022-12-23T15:48:31.474Z,4.90
2022-12-23T15:49:53.602Z,4.80
2022-12-23T15:53:18.642Z,4.70
2022-12-23T15:54:54.027Z,4.70
2022-12-23T15:56:26.004Z,4.60
2022-12-23T15:57:50.758Z,4.60
2022-12-23T15:59:23.630Z,4.60
2022-12-23T16:00:55.285Z,4.50
2022-12-23T16:04:08.993Z,4.40
2022-12-23T16:05:34.123Z,4.40
2022-12-23T16:06:56.777Z,4.30
2022-12-23T16:08:29.866Z,4.30
2022-12-23T16:09:54.938Z,4.20
2022-12-23T16:11:20.997Z,4.20
2022-12-23T16:12:43.909Z,4.20
2022-12-23T16:14:28.674Z,4.20
2022-12-23T16:15:50.841Z,4.10
2022-12-23T16:17:15.720Z,4.10
2022-12-23T16:18:47.217Z,4.00
2022-12-23T16:20:20.223Z,4.00
2022-12-23T16:21:42.353Z,4.00
2022-12-23T16:23:04.525Z,3.90
2022-12-23T16:24:26.642Z,3.90
2022-12-23T16:25:52.111Z,3.80
2022-12-23T16:27:17.275Z,3.80
2022-12-23T16:28:45.809Z,3.80
2022-12-23T16:30:22.761Z,3.70
2022-12-23T16:31:52.177Z,3.70
2022-12-23T16:33:43.199Z,3.70
2022-12-23T16:35:12.609Z,3.60
2022-12-23T16:36:36.545Z,3.60
2022-12-23T16:38:05.196Z,3.60
2022-12-23T16:39:27.398Z,3.50
2022-12-23T16:40:52.194Z,3.50
2022-12-23T16:42:14.934Z,3.50
2022-12-23T16:43:37.195Z,3.40
2022-12-23T16:44:59.489Z,3.40
2022-12-23T16:46:23.330Z,3.40
2022-12-23T16:47:45.803Z,3.40
2022-12-23T16:49:11.182Z,3.40
2022-12-23T16:50:33.277Z,3.40
2022-12-23T16:51:55.360Z,3.30
2022-12-23T16:53:17.471Z,3.30
2022-12-23T16:54:39.638Z,3.30
2022-12-23T16:56:02.486Z,3.30
2022-12-23T16:57:24.589Z,3.30
2022-12-23T16:58:47.251Z,3.20
2022-12-23T17:00:16.031Z,3.20
2022-12-23T17:01:45.248Z,3.20
2022-12-23T17:03:07.897Z,3.20
2022-12-23T17:04:29.991Z,3.20
2022-12-23T17:05:52.141Z,3.30
2022-12-23T17:07:14.849Z,3.30
2022-12-23T17:08:36.940Z,3.30
2022-12-23T17:09:59.100Z,3.30
2022-12-23T17:11:38.308Z,3.30
2022-12-23T17:13:00.510Z,3.30
2022-12-23T17:14:24.791Z,3.30
2022-12-23T17:15:46.954Z,3.30
2022-12-23T17:17:15.665Z,3.30
2022-12-23T17:18:37.774Z,3.30
2022-12-23T17:19:59.991Z,3.30
2022-12-23T17:21:29.354Z,3.30
2022-12-23T17:22:54.285Z,3.20
2022-12-23T17:24:26.966Z,3.20
2022-12-23T17:25:49.090Z,3.20
2022-12-23T17:27:15.020Z,3.10
2022-12-23T17:28:37.525Z,3.10
2022-12-23T17:29:59.606Z,3.10
2022-12-23T17:31:26.645Z,3.10
2022-12-23T17:32:55.973Z,3.00
2022-12-23T17:34:23.860Z,3.00
2022-12-23T17:35:46.070Z,3.00
2022-12-23T17:37:16.866Z,3.00
2022-12-23T17:38:39.023Z,3.00
2022-12-23T17:40:01.164Z,3.00
2022-12-23T17:41:31.397Z,3.00
2022-12-23T17:42:53.454Z,3.00
2022-12-23T17:44:17.429Z,3.00
2022-12-23T17:45:39.602Z,3.00
2022-12-23T17:47:01.702Z,3.00
2022-12-23T17:48:29.599Z,3.00
2022-12-23T17:49:53.723Z,2.90
2022-12-23T17:51:21.103Z,2.90
2022-12-23T17:52:43.265Z,2.90
2022-12-23T17:54:06.419Z,2.90
2022-12-23T17:55:29.226Z,2.90
2022-12-23T17:56:51.881Z,2.90
2022-12-23T17:58:15.135Z,3.00
2022-12-23T17:59:37.183Z,3.00
2022-12-23T18:00:59.389Z,3.00
2022-12-23T18:02:25.974Z,3.00
2022-12-23T18:03:48.097Z,3.10
2022-12-23T18:05:31.671Z,3.10
2022-12-23T18:06:53.764Z,3.10
2022-12-23T18:08:16.903Z,3.10
2022-12-23T18:09:38.923Z,3.10
2022-12-23T18:11:00.999Z,3.10
2022-12-23T18:12:39.181Z,3.00
2022-12-23T18:14:02.112Z,3.00
2022-12-23T18:15:43.884Z,3.00
2022-12-23T18:17:06.019Z,3.00
2022-12-23T18:18:37.788Z,3.00
2022-12-23T18:20:04.632Z,3.00
2022-12-23T18:21:28.605Z,3.00
2022-12-23T18:22:53.002Z,2.90
2022-12-23T18:24:16.031Z,2.90
2022-12-23T18:25:38.162Z,2.90
2022-12-23T18:27:00.431Z,2.90
2022-12-23T18:28:23.086Z,2.90
2022-12-23T18:29:45.984Z,2.80
2022-12-23T18:31:18.424Z,2.80
2022-12-23T18:32:41.112Z,2.80
2022-12-23T18:34:03.897Z,2.80
2022-12-23T18:35:30.380Z,2.80
2022-12-23T18:36:52.588Z,2.80
2022-12-23T18:38:15.923Z,2.80
2022-12-23T18:39:37.956Z,2.80
2022-12-23T18:41:00.109Z,2.80
2022-12-23T18:42:22.151Z,2.80
2022-12-23T18:43:44.525Z,2.80
2022-12-23T18:45:32.827Z,2.80
2022-12-23T18:46:54.945Z,2.80
2022-12-23T18:48:17.543Z,2.80
2022-12-23T18:49:39.932Z,2.70
2022-12-23T18:51:02.019Z,2.70
2022-12-23T18:52:26.320Z,2.70
2022-12-23T18:53:48.482Z,2.70
2022-12-23T18:55:12.488Z,2.70
2022-12-23T18:56:34.593Z,2.70
2022-12-23T18:57:58.408Z,2.80
2022-12-23T18:59:29.306Z,2.80
2022-12-23T19:00:53.076Z,2.80
2022-12-23T19:02:15.383Z,2.80
2022-12-23T19:03:37.541Z,2.80
2022-12-23T19:04:59.599Z,2.80
2022-12-23T19:06:21.717Z,2.80
2022-12-23T19:07:44.170Z,2.80
2022-12-23T19:09:07.276Z,2.80
2022-12-23T19:10:33.278Z,2.90
2022-12-23T19:11:55.426Z,2.90
2022-12-23T19:13:18.328Z,2.90
2022-12-23T19:14:40.624Z,2.90
2022-12-23T19:16:02.775Z,2.90
2022-12-23T19:17:24.838Z,2.90
2022-12-23T19:18:48.344Z,2.90
2022-12-23T19:20:14.000Z,3.00
2022-12-23T19:21:36.302Z,2.90
2022-12-23T19:22:58.330Z,2.90
2022-12-23T19:24:20.448Z,2.90
2022-12-23T19:25:52.596Z,2.90
2022-12-23T19:27:17.117Z,2.90
2022-12-23T19:28:41.450Z,2.90
2022-12-23T19:30:03.910Z,2.90
2022-12-23T19:31:26.139Z,2.90
2022-12-23T19:32:51.547Z,2.90
2022-12-23T19:34:15.590Z,2.90
2022-12-23T19:35:41.698Z,2.90
2022-12-23T19:37:03.844Z,2.90
2022-12-23T19:38:26.122Z,2.80
2022-12-23T19:39:49.839Z,2.80
2022-12-23T19:41:11.995Z,2.80
2022-12-23T19:42:34.518Z,2.80